If you wish to contribute or participate in the discussions about articles you are invited to join SKYbrary as a registered user

 Actions

Attawapiskat Airport

From SKYbrary Wiki

CYAT
Airport
ICAO: CYAT – IATA: YAT
Summary
Name Attawapiskat Airport
Region North America
Territory Canada CA.gif
Location Attawapiskat, Ontario
Serving Attawapiskat First Nation
Elevation 9 m
29.528 ft
29.528 ft9 m
Coordinates 52° 55' 35.60" N, 82° 25' 49.71" W
Runways
Designator Length Width Surface ROPS
6/24 1067 m3,500.656 ft
30 m98.425 ft
GRVL /


METAR
Observation CYAT 181700Z AUTO 25004KT 230V320 9SM CLR M12/M19 A3029 RMK SLP259
Station Attawapiskat Airport
Date/Time 18 March 2019 17:00:00
Wind direction 250°
Wind speed 04 kts
Lowest cloud amount n/a
Temperature
Dew point
Humidity 55%
QNH hPa
Weather condition n/a

WX
Tag(s)

Attawapiskat Airport

ICAO: CYAT IATA: YSB

Description

Regional airport adjacent to the Attawapiskat First Nation, Ontario, Canada.

Climatology

Subarctic climate (Köppen climate classification Dfc) - long, usually very cold winters, and short, cool to mild summers.

Maps

Terrain

Loading map...

Airport Layout

Loading map...


Accidents & Serious Incidents at or in vicinity of CYAT

None on SKYbrary